Time;durP1;ratioP1;P1;durP2;ratioP2;P2;SDS_P1;SDS_P2;PMS_P1;PMS_P2;Temp;Humidity;BMP_temperature;BMP_pressure;BME280_temperature;BME280_humidity;BME280_pressure;Samples;Min_cycle;Max_cycle;Signal;HPM_P1;HPM_P2
2020/12/02 00:03:03;;;;;;;13.06;7.79;;;;;;;2.99;86.71;99536.16;1983271;81;20332;-73
2020/12/02 00:06:07;;;;;;;11.05;7.60;;;;;;;2.99;86.80;99531.03;1985457;80;20412;-73
2020/12/02 00:09:18;;;;;;;12.29;7.84;;;;;;;2.99;86.80;99523.34;1982919;81;20360;-73
2020/12/02 00:12:21;;;;;;;9.85;7.94;;;;;;;3.00;86.95;99522.50;1982991;81;20349;-73
2020/12/02 00:15:23;;;;;;;13.27;8.05;;;;;;;3.01;86.91;99521.69;1982857;81;20861;-73
2020/12/02 00:18:25;;;;;;;10.24;7.36;;;;;;;3.03;86.87;99527.72;1983844;81;20340;-73
2020/12/02 00:21:31;;;;;;;11.48;8.46;;;;;;;3.02;86.78;99522.53;1983239;81;20356;-73
2020/12/02 00:24:33;;;;;;;10.15;7.35;;;;;;;3.03;86.84;99521.72;1983248;81;20312;-74
2020/12/02 00:27:35;;;;;;;9.10;6.86;;;;;;;3.02;86.88;99522.53;1983111;81;20338;-73
2020/12/02 00:30:37;;;;;;;8.80;6.76;;;;;;;3.00;86.85;99517.38;1983178;81;20308;-73
2020/12/02 00:33:39;;;;;;;8.43;6.68;;;;;;;3.01;86.92;99511.41;2030650;70;21002;-73
2020/12/02 00:36:40;;;;;;;7.07;5.89;;;;;;;2.99;86.81;99510.50;1982666;81;20971;-73
2020/12/02 00:39:45;;;;;;;7.95;5.50;;;;;;;2.97;86.81;99509.59;1984065;81;20564;-73
2020/12/02 00:42:48;;;;;;;6.56;5.00;;;;;;;2.96;86.78;99510.44;1982829;81;20396;-73
2020/12/02 00:45:53;;;;;;;5.84;4.75;;;;;;;2.95;86.93;99518.09;1983893;81;20351;-73
2020/12/02 00:48:55;;;;;;;6.35;4.85;;;;;;;2.98;86.92;99510.47;1983440;81;20374;-74
2020/12/02 00:51:56;;;;;;;5.50;4.72;;;;;;;2.96;86.90;99510.44;1983892;81;20880;-73
2020/12/02 00:54:58;;;;;;;5.69;4.36;;;;;;;2.97;86.87;99507.03;1984578;81;20639;-73
2020/12/02 00:58:08;;;;;;;6.09;4.88;;;;;;;2.98;86.86;99501.09;1983424;81;20385;-73
2020/12/02 01:01:12;;;;;;;;;;;;;;;2.93;86.85;99509.47;1984896;80;20340;-72
2020/12/02 01:04:17;;;;;;;5.18;4.10;;;;;;;2.94;87.15;99500.97;1983848;81;20093;-73
2020/12/02 01:07:20;;;;;;;6.39;4.89;;;;;;;2.96;87.16;99501.88;1983662;81;20343;-73
2020/12/02 01:10:22;;;;;;;7.36;5.44;;;;;;;2.98;87.06;99505.34;1983940;81;20304;-73
2020/12/02 01:13:23;;;;;;;7.38;5.80;;;;;;;2.95;87.12;99505.25;1983201;81;20331;-73
2020/12/02 01:16:31;;;;;;;7.20;5.78;;;;;;;2.97;87.22;99509.59;1983593;81;20863;-73
2020/12/02 01:19:35;;;;;;;11.46;6.85;;;;;;;2.98;87.17;99507.91;1983015;81;20332;-73
2020/12/02 01:22:41;;;;;;;8.51;6.40;;;;;;;3.00;87.13;99511.38;1983623;81;20344;-73
2020/12/02 01:25:44;;;;;;;9.30;6.60;;;;;;;2.99;87.13;99514.78;1983828;81;20344;-73
2020/12/02 01:28:48;;;;;;;8.95;6.31;;;;;;;2.93;87.12;99512.91;1983123;81;20686;-73
2020/12/02 01:31:55;;;;;;;8.02;6.56;;;;;;;2.94;87.20;99518.91;1984026;81;20778;-72
2020/12/02 01:34:56;;;;;;;8.49;6.72;;;;;;;2.94;87.24;99521.47;1983386;81;20328;-73
2020/12/02 01:38:06;;;;;;;8.68;6.82;;;;;;;2.96;87.24;99520.69;1983939;81;20361;-73
2020/12/02 01:41:11;;;;;;;9.75;7.59;;;;;;;2.97;87.14;99522.44;1983561;81;20919;-73
2020/12/02 01:44:12;;;;;;;10.84;7.00;;;;;;;2.98;87.29;99528.41;1983717;81;20343;-73
2020/12/02 01:47:34;;;;;;;10.57;6.79;;;;;;;3.00;87.31;99521.63;1983496;81;20312;-73
2020/12/02 01:50:40;;;;;;;9.09;6.56;;;;;;;2.95;87.27;99513.81;1983945;81;20432;-73
2020/12/02 01:54:00;;;;;;;11.43;7.43;;;;;;;2.94;87.34;99511.22;1983809;81;20357;-73
2020/12/02 01:57:10;;;;;;;9.05;6.59;;;;;;;2.94;87.46;99508.66;1983631;81;20506;-72
2020/12/02 02:00:16;;;;;;;10.60;6.86;;;;;;;2.94;87.38;99511.22;1983008;81;20866;-73
2020/12/02 02:03:18;;;;;;;9.01;6.50;;;;;;;2.94;87.46;99512.09;1984020;81;20438;-73
2020/12/02 02:06:31;;;;;;;10.94;7.07;;;;;;;2.99;87.34;99504.50;1983200;81;21058;-73
2020/12/02 02:09:33;;;;;;;9.30;6.70;;;;;;;3.00;87.25;99501.13;1983097;81;20941;-73
2020/12/02 02:13:10;;;;;;;8.15;6.09;;;;;;;2.98;87.36;99506.22;1984643;81;20354;-73
2020/12/02 02:16:23;;;;;;;9.81;6.66;;;;;;;2.98;87.38;99500.22;1983862;81;20870;-72
2020/12/02 02:19:25;;;;;;;9.39;6.79;;;;;;;2.95;87.32;99506.13;1982776;81;20401;-72
2020/12/02 02:22:27;;;;;;;9.64;6.79;;;;;;;2.95;87.40;99503.56;1983227;81;20440;-73
2020/12/02 02:25:29;;;;;;;10.60;6.88;;;;;;;2.95;87.49;99505.25;1983193;80;20363;-73
2020/12/02 02:28:35;;;;;;;9.90;7.28;;;;;;;2.93;87.57;99504.34;1984384;81;20324;-73
2020/12/02 02:31:46;;;;;;;9.93;6.84;;;;;;;2.93;87.65;99505.22;1983638;80;20316;-72
2020/12/02 02:34:54;;;;;;;8.71;6.35;;;;;;;2.89;87.75;99505.97;1983525;81;20319;-72
2020/12/02 02:37:56;;;;;;;9.91;8.15;;;;;;;2.90;87.95;99497.44;1983820;81;20840;-73
2020/12/02 02:40:58;;;;;;;9.68;6.88;;;;;;;2.88;87.98;99498.25;1983714;81;20292;-73
2020/12/02 02:44:01;;;;;;;8.64;6.47;;;;;;;2.90;88.09;99494.88;1983493;81;20355;-73
2020/12/02 02:47:02;;;;;;;8.32;6.24;;;;;;;2.94;88.09;99496.69;1983339;81;20361;-73
2020/12/02 02:50:11;;;;;;;9.30;6.35;;;;;;;2.98;88.03;99489.94;1983048;81;20331;-73
2020/12/02 02:53:15;;;;;;;;;;;;;;;2.99;87.87;99495.13;1984119;81;20843;-73
2020/12/02 02:56:17;;;;;;;7.75;5.25;;;;;;;2.99;87.72;99500.25;1983350;81;20107;-72
2020/12/02 02:59:19;;;;;;;9.76;6.28;;;;;;;3.01;87.63;99498.59;1983933;81;20397;-72
2020/12/02 03:02:21;;;;;;;9.10;6.36;;;;;;;2.95;87.54;99495.88;1984541;81;20463;-73
2020/12/02 03:05:23;;;;;;;8.43;5.99;;;;;;;2.94;87.63;99491.56;1984828;81;20386;-73
2020/12/02 03:08:25;;;;;;;9.60;5.71;;;;;;;2.94;87.75;99495.84;1985122;81;20332;-72
2020/12/02 03:11:27;;;;;;;9.31;5.96;;;;;;;2.96;87.75;99500.19;1985441;81;20389;-72
2020/12/02 03:14:30;;;;;;;9.25;5.97;;;;;;;2.92;87.71;99495.78;1984310;81;20336;-72
2020/12/02 03:17:31;;;;;;;8.15;5.90;;;;;;;2.91;87.67;99506.88;1984941;81;20371;-73
2020/12/02 03:20:37;;;;;;;9.69;6.53;;;;;;;2.91;87.78;99504.31;1984483;81;20320;-73
2020/12/02 03:23:39;;;;;;;7.71;6.10;;;;;;;2.92;87.77;99511.19;1984292;81;20328;-73
2020/12/02 03:26:41;;;;;;;8.40;6.00;;;;;;;2.95;87.76;99518.09;1983999;81;20406;-73
2020/12/02 03:29:43;;;;;;;9.21;6.03;;;;;;;2.97;87.64;99519.00;1984995;81;20385;-73
2020/12/02 03:32:45;;;;;;;7.96;5.47;;;;;;;2.94;87.52;99518.91;1984900;81;20360;-72
2020/12/02 03:35:46;;;;;;;7.59;5.21;;;;;;;2.93;87.52;99510.34;1985072;81;20353;-72
2020/12/02 03:38:48;;;;;;;5.04;4.50;;;;;;;2.95;87.57;99518.09;1988265;81;20361;-72
2020/12/02 03:41:50;;;;;;;5.90;4.55;;;;;;;2.93;87.29;99507.78;1984751;81;20336;-72
2020/12/02 03:44:52;;;;;;;5.15;4.65;;;;;;;2.96;87.23;99509.56;1985466;81;20356;-73
2020/12/02 03:47:54;;;;;;;5.18;4.34;;;;;;;2.96;87.09;99507.00;1984519;81;20323;-72
2020/12/02 03:50:55;;;;;;;4.89;4.21;;;;;;;2.97;86.95;99501.91;1984560;81;20332;-73
2020/12/02 03:53:57;;;;;;;4.32;3.72;;;;;;;2.99;86.84;99494.25;1984504;81;21203;-73
2020/12/02 03:56:59;;;;;;;4.38;3.54;;;;;;;2.95;86.46;99495.88;1984410;81;20487;-73
2020/12/02 04:00:01;;;;;;;4.10;3.38;;;;;;;2.90;86.38;99497.44;1984107;81;20386;-73
2020/12/02 04:03:03;;;;;;;3.53;3.13;;;;;;;2.91;86.35;99493.19;1983568;80;20765;-73
2020/12/02 04:06:06;;;;;;;4.00;3.60;;;;;;;2.89;86.03;99488.03;1983690;81;20324;-73
2020/12/02 04:09:07;;;;;;;5.18;4.06;;;;;;;2.89;86.05;99484.59;1983894;81;20320;-73
2020/12/02 04:12:09;;;;;;;4.26;3.30;;;;;;;2.85;86.00;99483.59;1982343;81;21328;-72
2020/12/02 04:15:12;;;;;;;4.63;3.64;;;;;;;2.86;86.01;99487.91;1982815;81;20324;-72
2020/12/02 04:18:14;;;;;;;5.61;3.59;;;;;;;2.84;85.95;99492.13;1983671;81;20312;-72
2020/12/02 04:21:24;;;;;;;4.05;3.53;;;;;;;2.85;86.00;99487.88;1983206;81;20461;-73
2020/12/02 04:24:26;;;;;;;3.96;3.45;;;;;;;2.86;85.87;99492.16;1983248;81;20344;-73
2020/12/02 04:27:28;;;;;;;4.05;3.40;;;;;;;2.84;85.73;99487.00;1983267;81;20365;-73
2020/12/02 04:30:29;;;;;;;4.50;3.85;;;;;;;2.85;85.74;99485.31;1983187;81;20367;-72
2020/12/02 04:33:31;;;;;;;4.31;3.59;;;;;;;2.85;85.75;99481.03;1983315;81;20332;-72
2020/12/02 04:36:32;;;;;;;3.75;3.39;;;;;;;2.86;85.64;99484.47;1983264;81;20385;-73
2020/12/02 04:39:34;;;;;;;4.11;3.26;;;;;;;2.86;85.69;99482.78;1983327;81;20347;-72
2020/12/02 04:42:43;;;;;;;4.26;3.84;;;;;;;2.84;85.76;99487.00;1983137;81;20369;-72
2020/12/02 04:45:47;;;;;;;4.00;3.60;;;;;;;2.82;85.70;99483.53;1983170;81;20337;-72
2020/12/02 04:48:55;;;;;;;4.71;3.92;;;;;;;2.82;85.57;99480.97;1982987;81;20349;-72
2020/12/02 04:52:00;;;;;;;4.19;3.56;;;;;;;2.83;85.43;99484.41;1982320;81;20740;-73
2020/12/02 04:55:03;;;;;;;4.75;4.19;;;;;;;2.84;85.47;99483.56;1983365;81;20373;-73
2020/12/02 04:58:35;;;;;;;4.57;4.04;;;;;;;2.86;85.39;99487.03;1983039;81;20360;-73
2020/12/02 05:01:54;;;;;;;5.18;3.92;;;;;;;2.81;85.26;99484.34;1985927;80;20809;-73
2020/12/02 05:05:00;;;;;;;4.13;3.72;;;;;;;2.82;85.20;99482.66;1983289;81;20566;-72
2020/12/02 05:08:19;;;;;;;4.97;3.95;;;;;;;2.82;85.02;99477.53;1983229;81;20336;-72
2020/12/02 05:11:21;;;;;;;;;;;;;;;2.81;85.10;99483.50;1983595;81;20803;-72
2020/12/02 05:14:29;;;;;;;5.54;4.04;;;;;;;2.80;85.16;99479.19;1983498;81;20196;-72
2020/12/02 05:17:31;;;;;;;6.40;4.91;;;;;;;2.80;85.31;99486.88;1983185;81;20320;-72
2020/12/02 05:20:32;;;;;;;6.24;4.81;;;;;;;2.81;85.31;99474.09;1982518;81;20226;-73
2020/12/02 05:23:34;;;;;;;7.30;5.32;;;;;;;2.82;85.29;99482.66;1983997;81;20316;-72
2020/12/02 05:26:41;;;;;;;7.81;5.39;;;;;;;2.83;85.26;99482.69;1983600;81;20343;-72
2020/12/02 05:29:50;;;;;;;7.80;5.03;;;;;;;2.83;85.07;99479.28;1983972;80;20373;-73
2020/12/02 05:33:10;;;;;;;6.39;4.88;;;;;;;2.82;85.21;99474.97;1984517;81;20800;-73
2020/12/02 05:36:15;;;;;;;8.90;5.76;;;;;;;2.82;85.10;99478.41;1984178;81;20335;-72
2020/12/02 05:39:38;;;;;;;6.06;4.71;;;;;;;2.80;85.01;99477.50;1984409;81;20324;-73
2020/12/02 05:42:42;;;;;;;7.24;5.29;;;;;;;2.80;85.02;99477.50;1983407;81;20324;-73
2020/12/02 05:45:47;;;;;;;7.54;5.32;;;;;;;2.79;84.73;99475.75;1983441;81;20352;-73
2020/12/02 05:48:59;;;;;;;10.14;6.31;;;;;;;2.76;84.63;99470.56;1984067;81;20910;-73
2020/12/02 05:52:02;;;;;;;7.90;6.00;;;;;;;2.76;84.88;99474.81;1983737;81;21342;-72
2020/12/02 05:55:10;;;;;;;9.19;5.96;;;;;;;2.81;84.99;99470.66;1983603;81;21041;-73
2020/12/02 05:58:22;;;;;;;7.75;5.45;;;;;;;2.84;85.01;99468.19;1983556;81;20466;-72
2020/12/02 06:01:24;;;;;;;8.05;5.03;;;;;;;2.83;84.68;99469.00;1983436;81;21299;-72
2020/12/02 06:04:26;;;;;;;7.16;5.35;;;;;;;2.84;84.62;99469.06;1984002;81;20339;-72
2020/12/02 06:07:45;;;;;;;8.19;5.32;;;;;;;2.86;84.53;99471.66;1983670;81;20350;-73
2020/12/02 06:10:47;;;;;;;9.52;5.93;;;;;;;2.84;84.40;99471.63;1983933;81;20335;-73
2020/12/02 06:13:58;;;;;;;6.16;4.59;;;;;;;2.80;84.50;99462.13;1984460;81;20229;-73
2020/12/02 06:17:02;;;;;;;6.76;5.11;;;;;;;2.82;84.62;99465.59;1984159;81;20237;-72
2020/12/02 06:20:03;;;;;;;7.44;5.57;;;;;;;2.85;84.50;99457.97;1984429;81;20371;-73
2020/12/02 06:23:05;;;;;;;8.64;5.81;;;;;;;2.87;84.30;99450.31;1983441;81;20825;-72
2020/12/02 06:26:07;;;;;;;9.60;6.32;;;;;;;2.88;84.11;99452.94;1983680;81;20381;-73
2020/12/02 06:29:29;;;;;;;7.57;5.60;;;;;;;2.88;84.27;99455.50;1983595;81;20880;-73
2020/12/02 06:32:32;;;;;;;7.20;5.82;;;;;;;2.90;84.25;99456.41;1983386;81;20856;-72
2020/12/02 06:35:34;;;;;;;8.61;5.75;;;;;;;2.92;84.16;99457.31;1981590;81;20356;-73
2020/12/02 06:38:36;;;;;;;10.46;7.13;;;;;;;2.92;83.96;99470.16;1983860;81;20349;-73
2020/12/02 06:41:44;;;;;;;9.41;6.54;;;;;;;2.95;83.97;99462.53;1983726;81;20332;-73
2020/12/02 06:45:15;;;;;;;11.23;7.10;;;;;;;2.95;83.87;99459.97;1986174;81;20357;-72
2020/12/02 06:48:34;;;;;;;8.55;6.47;;;;;;;2.97;83.72;99468.56;1983199;81;20760;-72
2020/12/02 06:51:36;;;;;;;;;;;;;;;2.99;83.64;99466.91;1984000;81;20441;-72
2020/12/02 06:54:39;;;;;;;9.98;6.63;;;;;;;2.99;83.53;99458.34;1983352;81;20101;-72
2020/12/02 06:57:42;;;;;;;8.70;5.93;;;;;;;2.93;83.32;99465.88;1983773;81;20636;-72
2020/12/02 07:00:57;;;;;;;11.29;7.38;;;;;;;2.93;83.31;99464.19;1983532;81;20389;-71
2020/12/02 07:04:04;;;;;;;10.50;6.96;;;;;;;2.96;83.46;99465.97;1983679;81;20764;-72
2020/12/02 07:07:05;;;;;;;11.32;7.14;;;;;;;2.93;83.30;99463.31;1982716;81;20339;-70
2020/12/02 07:10:15;;;;;;;11.15;7.94;;;;;;;2.96;83.50;99463.41;1983725;81;20340;-71
2020/12/02 07:13:18;;;;;;;10.36;7.50;;;;;;;2.96;83.30;99465.97;1983411;81;20332;-71
2020/12/02 07:16:30;;;;;;;9.94;7.50;;;;;;;2.94;83.27;99463.38;1983900;81;20977;-71
2020/12/02 07:19:35;;;;;;;11.82;7.99;;;;;;;2.96;83.14;99463.41;1983481;81;20745;-71
2020/12/02 07:22:45;;;;;;;10.98;7.80;;;;;;;2.94;83.03;99463.38;1983398;81;20884;-71
2020/12/02 07:25:48;;;;;;;11.84;8.25;;;;;;;2.91;83.06;99470.97;1983543;81;20312;-71
2020/12/02 07:29:00;;;;;;;12.00;7.94;;;;;;;2.88;83.08;99463.22;1983620;81;20327;-71
2020/12/02 07:32:11;;;;;;;12.26;7.79;;;;;;;2.88;83.09;99460.66;1983364;81;20340;-71
2020/12/02 07:35:17;;;;;;;9.81;7.57;;;;;;;2.85;83.28;99464.78;1984136;81;20848;-72
2020/12/02 07:38:19;;;;;;;11.02;7.50;;;;;;;2.86;83.40;99457.13;1984067;81;20385;-71
2020/12/02 07:41:22;;;;;;;10.75;7.54;;;;;;;2.82;83.24;99455.31;1983733;81;20545;-71
2020/12/02 07:44:25;;;;;;;10.84;8.04;;;;;;;2.79;83.36;99456.94;1983222;81;20401;-72
2020/12/02 07:47:27;;;;;;;12.66;8.38;;;;;;;2.83;83.53;99462.19;1983048;81;20319;-72
2020/12/02 07:50:54;;;;;;;11.94;8.11;;;;;;;2.86;83.67;99466.53;1983378;81;20810;-72
2020/12/02 07:54:11;;;;;;;12.57;8.26;;;;;;;2.88;83.22;99468.34;1982946;81;20392;-71
2020/12/02 07:57:14;;;;;;;11.61;8.13;;;;;;;2.88;83.53;99478.59;1984157;81;20439;-71
2020/12/02 08:00:26;;;;;;;12.26;8.59;;;;;;;2.89;83.40;99485.47;1984303;81;20482;-72
2020/12/02 08:03:37;;;;;;;13.16;9.38;;;;;;;2.90;83.27;99483.75;1983475;81;20345;-72
2020/12/02 08:06:48;;;;;;;14.01;9.25;;;;;;;2.91;83.27;99482.94;1984215;81;20635;-72
2020/12/02 08:09:51;;;;;;;15.20;9.27;;;;;;;2.93;83.16;99484.72;1983174;81;20357;-69
2020/12/02 08:12:53;;;;;;;14.57;9.82;;;;;;;2.95;83.23;99483.03;1983415;81;20813;-72
2020/12/02 08:15:58;;;;;;;16.06;10.60;;;;;;;2.96;83.16;99486.47;1983129;81;20409;-72
2020/12/02 08:19:00;;;;;;;14.00;9.88;;;;;;;2.98;83.13;99480.56;1982875;81;20332;-72
2020/12/02 08:22:02;;;;;;;14.06;9.59;;;;;;;2.99;83.19;99486.56;1984129;81;20748;-72
2020/12/02 08:25:21;;;;;;;15.26;10.19;;;;;;;2.92;83.10;99477.84;1983554;81;20389;-72
2020/12/02 08:28:28;;;;;;;15.95;11.24;;;;;;;2.94;83.19;99476.19;1982689;81;20343;-72
2020/12/02 08:31:31;;;;;;;15.73;9.30;;;;;;;2.94;82.91;99478.75;1984197;81;21078;-72
2020/12/02 08:34:35;;;;;;;15.65;10.34;;;;;;;2.89;82.82;99475.19;1983173;81;20421;-72
2020/12/02 08:37:38;;;;;;;14.40;10.31;;;;;;;2.85;82.88;99478.47;1983508;81;20759;-72
2020/12/02 08:40:45;;;;;;;15.94;10.29;;;;;;;2.86;83.03;99485.34;1984822;81;21068;-72
2020/12/02 08:43:47;;;;;;;13.70;9.21;;;;;;;2.85;82.96;99478.47;1984185;81;20355;-72
2020/12/02 08:46:52;;;;;;;11.93;8.45;;;;;;;2.83;82.83;99475.00;1983844;81;20331;-73
2020/12/02 08:49:53;;;;;;;13.41;8.50;;;;;;;2.83;82.47;99469.88;1987152;81;21141;-72
2020/12/02 08:52:57;;;;;;;11.98;8.41;;;;;;;2.77;81.71;99473.97;1985509;81;20365;-72
2020/12/02 08:55:59;;;;;;;9.94;6.96;;;;;;;2.78;81.58;99465.47;1986421;81;20336;-72
2020/12/02 08:59:03;;;;;;;9.51;7.11;;;;;;;2.79;81.29;99470.63;1986426;81;20324;-73
2020/12/02 09:02:12;;;;;;;8.01;5.93;;;;;;;2.81;81.11;99466.41;1987766;81;20353;-72
2020/12/02 09:05:14;;;;;;;6.89;5.26;;;;;;;2.81;80.75;99471.53;1987401;81;20381;-72
2020/12/02 09:08:16;;;;;;;8.36;5.19;;;;;;;2.82;80.44;99467.28;1986748;81;20343;-72
2020/12/02 09:11:38;;;;;;;8.18;5.15;;;;;;;2.81;80.02;99474.09;1986852;81;20323;-72
2020/12/02 09:14:39;;;;;;;7.50;5.44;;;;;;;2.82;79.83;99473.28;1985646;81;20336;-72
2020/12/02 09:17:41;;;;;;;6.26;5.01;;;;;;;2.80;79.87;99474.94;1986240;81;20361;-72
2020/12/02 09:20:43;;;;;;;7.89;5.43;;;;;;;2.78;79.73;99470.59;1986016;81;20336;-72
2020/12/02 09:23:44;;;;;;;8.05;5.65;;;;;;;2.80;79.94;99474.94;1985694;81;20369;-72
2020/12/02 09:26:47;;;;;;;6.90;4.91;;;;;;;2.80;79.88;99468.94;1986048;81;20382;-72
2020/12/02 09:29:52;;;;;;;6.11;5.01;;;;;;;2.79;79.71;99470.63;1986771;81;20361;-72
2020/12/02 09:32:57;;;;;;;5.47;4.65;;;;;;;2.78;79.41;99476.59;1986695;81;20484;-72
2020/12/02 09:35:59;;;;;;;7.16;4.44;;;;;;;2.70;79.01;99470.41;1986598;81;20733;-72
2020/12/02 09:39:01;;;;;;;5.55;4.34;;;;;;;2.71;79.27;99472.13;1986174;81;20361;-72
2020/12/02 09:42:39;;;;;;;7.93;5.94;;;;;;;2.70;79.19;99466.13;1985839;81;20363;-72
2020/12/02 09:45:59;;;;;;;6.64;5.21;;;;;;;2.72;79.29;99463.59;1985952;81;20324;-72
2020/12/02 09:49:03;;;;;;;6.68;4.59;;;;;;;2.68;79.12;99457.50;1986339;81;20936;-72
2020/12/02 09:52:10;;;;;;;6.80;4.96;;;;;;;2.66;79.20;99461.72;1985834;81;20367;-72
2020/12/02 09:55:20;;;;;;;6.54;4.66;;;;;;;2.68;79.18;99456.63;1986220;81;21250;-72
2020/12/02 09:58:23;;;;;;;8.19;5.10;;;;;;;2.70;79.27;99457.56;1986984;81;20204;-73
2020/12/02 10:01:40;;;;;;;7.14;5.32;;;;;;;2.70;79.23;99462.69;1985962;81;20385;-72
2020/12/02 10:05:04;;;;;;;7.59;5.61;;;;;;;2.69;79.07;99455.81;1985821;80;20353;-72
2020/12/02 10:08:27;;;;;;;7.53;5.32;;;;;;;2.69;79.24;99454.13;1984452;81;20359;-72
2020/12/02 10:11:51;;;;;;;7.26;5.04;;;;;;;2.68;79.25;99444.69;1983954;81;20459;-72
2020/12/02 10:15:12;;;;;;;6.05;4.59;;;;;;;2.69;79.21;99437.88;1983410;81;20336;-71
2020/12/02 10:18:36;;;;;;;6.75;5.31;;;;;;;2.74;79.36;99433.75;1983311;81;20368;-71
2020/12/02 10:22:26;;;;;;;7.51;5.09;;;;;;;2.76;79.11;99429.53;1984051;81;20332;-71
2020/12/02 10:25:50;;;;;;;7.44;5.39;;;;;;;2.77;79.23;99427.84;2002256;80;20386;-71
2020/12/02 10:29:01;;;;;;;6.50;5.30;;;;;;;2.81;79.27;99432.22;1984113;81;20188;-71
2020/12/02 10:32:35;;;;;;;8.38;6.15;;;;;;;2.85;79.17;99428.91;1983447;81;20363;-70
2020/12/02 10:35:42;;;;;;;7.21;5.50;;;;;;;2.82;79.19;99414.31;1985634;81;20685;-72
2020/12/02 10:38:52;;;;;;;7.39;5.30;;;;;;;2.82;79.19;99418.56;1986053;81;20332;-72
2020/12/02 10:41:59;;;;;;;8.23;6.18;;;;;;;2.86;79.21;99412.69;1985856;81;20790;-71
2020/12/02 10:45:30;;;;;;;8.40;5.51;;;;;;;2.77;78.60;99413.31;1986083;81;20342;-72
2020/12/02 10:49:10;;;;;;;9.11;6.00;;;;;;;2.77;79.04;99410.75;1986574;81;20327;-72
2020/12/02 10:52:17;;;;;;;8.68;6.46;;;;;;;2.74;79.06;99405.56;1991507;80;20838;-72
2020/12/02 10:55:22;;;;;;;9.11;6.85;;;;;;;2.69;79.10;99397.75;1986331;81;21307;-72
2020/12/02 10:58:28;;;;;;;9.52;6.28;;;;;;;2.71;79.28;99387.53;1985558;81;20351;-72
2020/12/02 11:01:30;;;;;;;9.48;5.78;;;;;;;2.74;79.40;99390.16;1986420;81;20349;-72
2020/12/02 11:04:33;;;;;;;8.48;5.88;;;;;;;2.78;79.31;99380.84;1986249;81;21108;-72
2020/12/02 11:08:05;;;;;;;7.14;5.12;;;;;;;2.78;78.95;99376.59;1986193;81;20447;-71
2020/12/02 11:11:18;;;;;;;6.04;4.79;;;;;;;2.81;78.68;99375.81;1986156;81;20251;-72
2020/12/02 11:14:57;;;;;;;7.30;4.97;;;;;;;2.80;78.22;99372.38;1985854;81;20191;-71
2020/12/02 11:18:10;;;;;;;5.71;4.35;;;;;;;2.83;78.33;99361.31;1986060;81;20361;-72
2020/12/02 11:21:24;;;;;;;5.45;4.49;;;;;;;2.80;77.83;99357.00;1985582;81;20215;-72
2020/12/02 11:24:48;;;;;;;7.31;5.07;;;;;;;2.78;77.91;99350.09;1985997;81;20805;-72
2020/12/02 11:27:49;;;;;;;5.84;4.51;;;;;;;2.80;77.78;99344.16;1985483;81;20361;-72
2020/12/02 11:30:51;;;;;;;6.47;4.57;;;;;;;2.79;77.36;99337.31;1986180;81;20353;-73
2020/12/02 11:34:06;;;;;;;8.85;5.34;;;;;;;2.80;77.35;99331.34;1986553;81;20336;-72
2020/12/02 11:37:11;;;;;;;8.07;5.14;;;;;;;2.81;77.38;99333.09;1989603;81;20328;-72
2020/12/02 11:40:22;;;;;;;5.70;4.55;;;;;;;2.76;76.94;99329.56;1985920;81;20365;-72
2020/12/02 11:43:30;;;;;;;6.91;4.90;;;;;;;2.72;77.00;99331.16;1986002;81;20355;-72
2020/12/02 11:46:34;;;;;;;6.60;4.29;;;;;;;2.70;77.44;99326.84;1985786;81;20825;-72
2020/12/02 11:49:38;;;;;;;6.72;5.26;;;;;;;2.67;77.72;99325.03;1985485;81;20316;-72
2020/12/02 11:53:15;;;;;;;8.09;5.10;;;;;;;2.71;77.89;99323.44;1986061;81;20331;-72
2020/12/02 11:56:25;;;;;;;6.13;4.72;;;;;;;2.70;77.41;99320.00;1991396;80;20332;-72
2020/12/02 11:59:31;;;;;;;6.45;4.66;;;;;;;2.71;77.56;99319.19;1986183;81;20381;-71
2020/12/02 12:02:44;;;;;;;7.03;4.88;;;;;;;2.73;77.45;99306.41;1984214;81;20357;-72
2020/12/02 12:05:56;;;;;;;6.34;4.75;;;;;;;2.76;77.42;99296.22;1984714;81;20332;-72
2020/12/02 12:09:39;;;;;;;5.74;5.06;;;;;;;2.69;76.53;99291.75;1986621;81;20373;-72
2020/12/02 12:13:09;;;;;;;5.16;4.63;;;;;;;2.72;77.05;99282.47;1995887;80;20450;-72
2020/12/02 12:16:24;;;;;;;6.78;4.70;;;;;;;2.72;77.16;99274.78;1984662;81;20354;-73
2020/12/02 12:19:40;;;;;;;5.69;4.36;;;;;;;2.75;77.11;99273.13;1985617;81;20347;-72
2020/12/02 12:22:51;;;;;;;6.55;4.65;;;;;;;2.74;76.97;99277.38;1985464;81;20353;-72
2020/12/02 12:25:53;;;;;;;6.82;4.97;;;;;;;2.69;76.68;99273.81;1985050;81;20398;-72
2020/12/02 12:28:55;;;;;;;7.93;5.36;;;;;;;2.68;77.01;99270.38;1986106;81;20389;-72
2020/12/02 12:32:25;;;;;;;7.43;4.49;;;;;;;2.66;77.20;99263.47;1986372;81;20357;-72
2020/12/02 12:35:31;;;;;;;6.50;5.41;;;;;;;2.65;77.15;99269.44;1985945;81;20545;-72
2020/12/02 12:38:39;;;;;;;7.74;5.56;;;;;;;2.66;77.32;99269.47;1986504;81;20323;-72
2020/12/02 12:41:44;;;;;;;7.89;5.81;;;;;;;2.67;77.63;99268.66;1990090;81;20332;-73
2020/12/02 12:44:46;;;;;;;8.05;5.84;;;;;;;2.70;77.63;99279.00;1986076;81;20389;-73
2020/12/02 12:47:50;;;;;;;7.96;6.31;;;;;;;2.69;77.50;99269.56;1986950;81;20351;-72
2020/12/02 12:50:52;;;;;;;9.48;6.10;;;;;;;2.64;77.63;99271.13;1986688;81;20942;-72
2020/12/02 12:53:54;;;;;;;8.51;6.49;;;;;;;2.63;77.70;99264.28;1985944;81;20344;-72
2020/12/02 12:56:57;;;;;;;8.94;5.80;;;;;;;2.60;77.75;99268.47;1986051;81;20817;-71
2020/12/02 13:00:02;;;;;;;7.96;5.90;;;;;;;2.61;77.74;99267.63;1986740;81;20349;-72
2020/12/02 13:03:11;;;;;;;8.18;6.20;;;;;;;2.58;77.54;99260.75;1986211;81;20315;-72
2020/12/02 13:06:54;;;;;;;9.84;6.59;;;;;;;2.56;77.89;99254.72;1985805;81;20323;-72
2020/12/02 13:10:18;;;;;;;7.18;5.32;;;;;;;2.58;77.81;99255.63;1986302;81;20605;-72
2020/12/02 13:13:38;;;;;;;7.53;5.35;;;;;;;2.58;77.62;99245.38;1986607;81;20339;-72
2020/12/02 13:16:50;;;;;;;6.75;5.15;;;;;;;2.60;77.50;99240.28;1984914;81;20332;-73
2020/12/02 13:20:01;;;;;;;8.31;5.45;;;;;;;2.63;77.54;99245.47;1986694;81;20328;-72
2020/12/02 13:23:19;;;;;;;8.14;5.46;;;;;;;2.59;77.42;99230.84;1986496;81;20839;-72
2020/12/02 13:26:26;;;;;;;6.86;5.22;;;;;;;2.59;77.21;99238.53;1986033;81;20356;-72
2020/12/02 13:29:40;;;;;;;7.99;5.38;;;;;;;2.58;76.97;99237.69;1986112;81;20685;-72
2020/12/02 13:33:01;;;;;;;8.20;5.69;;;;;;;2.59;77.21;99243.66;1985686;81;20972;-72
2020/12/02 13:36:14;;;;;;;9.59;6.10;;;;;;;2.56;77.24;99228.22;1984655;81;21042;-72
2020/12/02 13:39:16;;;;;;;8.77;6.07;;;;;;;2.53;77.49;99226.44;1985949;81;20324;-72
2020/12/02 13:42:18;;;;;;;10.46;6.70;;;;;;;2.54;77.82;99227.31;1988678;81;20415;-72
2020/12/02 13:45:25;;;;;;;9.77;6.78;;;;;;;2.53;78.33;99225.59;1988285;81;20345;-72
2020/12/02 13:48:27;;;;;;;11.64;7.03;;;;;;;2.54;78.44;99222.19;1986155;81;20325;-72
2020/12/02 13:51:40;;;;;;;11.32;7.34;;;;;;;2.49;78.37;99222.06;1986028;81;20339;-72
2020/12/02 13:55:01;;;;;;;10.34;7.68;;;;;;;2.46;78.54;99224.53;1986055;81;20370;-73
2020/12/02 13:58:18;;;;;;;12.48;8.57;;;;;;;2.46;78.79;99229.66;1985762;81;20514;-72
2020/12/02 14:01:40;;;;;;;13.60;7.93;;;;;;;2.40;79.03;99222.72;1986017;81;20780;-72
2020/12/02 14:04:59;;;;;;;11.60;8.16;;;;;;;2.39;79.15;99223.53;1986187;81;20353;-72
2020/12/02 14:08:03;;;;;;;11.06;7.44;;;;;;;2.35;79.08;99224.28;1985448;81;20358;-72
2020/12/02 14:11:05;;;;;;;10.15;7.10;;;;;;;2.33;79.15;99223.38;1985535;81;20344;-73
2020/12/02 14:14:07;;;;;;;12.18;8.32;;;;;;;2.30;79.06;99214.75;1986026;81;20804;-72
2020/12/02 14:17:11;;;;;;;11.79;8.11;;;;;;;2.24;78.81;99218.03;1985728;81;20323;-72
2020/12/02 14:20:18;;;;;;;12.71;8.05;;;;;;;2.22;79.18;99222.25;1985920;81;20913;-72
2020/12/02 14:23:20;;;;;;;11.59;8.36;;;;;;;2.22;79.45;99218.81;1985619;80;20337;-72
2020/12/02 14:26:21;;;;;;;13.84;8.21;;;;;;;2.20;79.50;99223.03;1985540;81;20664;-72
2020/12/02 14:29:25;;;;;;;11.81;7.43;;;;;;;2.22;79.90;99224.81;1985173;81;20328;-73
2020/12/02 14:32:28;;;;;;;10.90;7.89;;;;;;;2.24;79.76;99225.72;1986061;81;20859;-72
2020/12/02 14:35:32;;;;;;;13.15;8.75;;;;;;;2.25;79.58;99226.56;1985956;81;20350;-72
2020/12/02 14:38:34;;;;;;;10.15;7.54;;;;;;;2.24;79.63;99228.25;1986020;81;20353;-73
2020/12/02 14:41:36;;;;;;;12.04;7.82;;;;;;;2.25;79.75;99231.69;1985670;81;20367;-72
2020/12/02 14:44:40;;;;;;;13.11;8.14;;;;;;;2.23;79.52;99223.09;1985165;81;20328;-72
2020/12/02 14:47:41;;;;;;;12.27;8.64;;;;;;;2.21;79.74;99220.50;1985578;81;20340;-72
2020/12/02 14:50:43;;;;;;;13.25;9.00;;;;;;;2.19;80.07;99219.59;1986020;81;20316;-72
2020/12/02 14:53:44;;;;;;;14.50;9.59;;;;;;;2.21;80.34;99223.06;1986430;81;20359;-72
2020/12/02 14:56:54;;;;;;;12.88;8.19;;;;;;;2.19;80.29;99222.16;1986151;81;20849;-72